ESOWESSB

Guest
Details From ESOW - Vasteras
To ESSB - Bromma
Flight Number -
Tags Routegen Generated
Created
Modified
Stats Distance 48 nm / 88 km
Max Altitude 100 ft / 30 m
Waypoints 5
Social Downloads 4
Likes 0
Share

Download

Looking for another format? Having issues loading an existing format? Contact us
Advertisement - Login to hide

Notes

Departing runway 0 ESOW. Arriving runway 12 ESSB.

Route

ESOW +59.67_+016.66 +59.54_+017.23 +59.40_+017.81 ESSB

ID Type Via Altitude (ft/m) Position (lat/lon) Dist (leg/tot) Name
O ESOW APT - 0 / 0 59.60117 / 16.63570 - / 0 nm
+59.67_+016.66 LATLON - 100 / 30 59.67280 / 16.65611 4 / 4 nm
+59.54_+017.23 LATLON - 100 / 30 59.53650 / 17.23470 19 / 23 nm
+59.40_+017.81 LATLON - 100 / 30 59.40021 / 17.81330 19 / 43 nm
O ESSB APT - 0 / 0 59.35867 / 17.92964 4 / 47 nm

Altitude Profile

Advertisement - Login to hide

ESOW

Details ICAO ESOW (VST)
Name Stockholm Vasteras
Region Sweden
Timezone Europe/Stockholm (UTC+2.0)
Stats Elevation 19 ft / 6 m (AMSL)
Location 59.589800° 16.633900°
Runways 1
Magnetic Variation 6.027° E

METAR

ESOW 200320Z AUTO 01003KT 0450 R01/1800N R19/1500U FG FEW001/// 01/M00 Q1022

Decode

TAF

Not found

Departure Runways

ID Width Length Bearing (true/mag) Surface Threshold Overrun Markings Lighting
01 148 ft / 45 m 8,476 ft / 2,584 m 11.65° / 5.62° ASPHALT 0 ft / 0 m 0 ft / 0 m PREC-APP CENTERLINE EDGE THRESHOLD SALS REIL-OMNI
19 148 ft / 45 m 8,476 ft / 2,584 m 191.65° / 185.63° ASPHALT 0 ft / 0 m 0 ft / 0 m PREC-APP CENTERLINE EDGE THRESHOLD CALVERT REIL-OMNI

ESSB

Details ICAO ESSB (BMA)
Name Bromma
Region Sweden
Timezone Europe/Stockholm (UTC+2.0)
Stats Elevation 44 ft / 13 m (AMSL)
Location 59.354400° 17.942200°
Runways 1
Magnetic Variation 6.491° E

METAR

ESSB 200320Z AUTO 00000KT 0300 R12/P1500N R30/P1500N FG NCD 03/03 Q1022

Decode

TAF

Not found

Destination Runways

ID Width Length Bearing (true/mag) Surface Threshold Overrun Markings Lighting
12 148 ft / 45 m 6,181 ft / 1,884 m 125.05° / 118.56° ASPHALT 361 ft / 110 m 210 ft / 64 m PREC-APP EDGE THRESHOLD CALVERT REIL-OMNI
30 148 ft / 45 m 6,181 ft / 1,884 m 305.07° / 298.58° ASPHALT 361 ft / 110 m 207 ft / 63 m PREC-APP EDGE THRESHOLD CALVERT-ILS REIL-OMNI

Approach Navaids

Runway Type Ident Frequency Range Bearing (true/mag) Slope Elevation
12 OM OM - - 125.07° / 118.58 ° - 47 ft / 14 m (AMSL)
12 MM MM - - 125.07° / 118.58 ° - 86 ft / 26 m (AMSL)
12 LOC-ILS SB 110.30 MHz 18 nm / 33 km 125.08° / 118.59 ° - 45 ft / 14 m (AMSL)
12 GS SB 110.30 MHz 10 nm / 19 km 125.08° / 118.59 ° 3.50° 45 ft / 14 m (AMSL)
30 LOC-ILS SBA 109.70 MHz 18 nm / 33 km 305.08° / 298.59 ° - 45 ft / 14 m (AMSL)
30 GS SBA 109.70 MHz 10 nm / 19 km 305.08° / 298.59 ° 3.50° 45 ft / 14 m (AMSL)
30 OM OM - - 305.07° / 298.58 ° - 47 ft / 14 m (AMSL)
30 MM MM - - 305.07° / 298.58 ° - 40 ft / 12 m (AMSL)

Popular Alternatives